createdAt,value
2023-05-21T00:01:03.125Z,100665.11
2023-05-21T00:03:42.318Z,100660.91
2023-05-21T00:06:10.534Z,100665.77
2023-05-21T00:08:38.347Z,100661.86
2023-05-21T00:11:07.076Z,100659.89
2023-05-21T00:13:35.055Z,100655.34
2023-05-21T00:16:02.880Z,100655.22
2023-05-21T00:18:32.490Z,100656.91
2023-05-21T00:21:01.695Z,100654.63
2023-05-21T00:23:32.779Z,100652.56
2023-05-21T00:26:01.411Z,100656.63
2023-05-21T00:28:29.205Z,100653.14
2023-05-21T00:30:57.055Z,100653.05
2023-05-21T00:33:26.647Z,100653.19
2023-05-21T00:35:58.846Z,100654.02
2023-05-21T00:38:27.880Z,100650.77
2023-05-21T00:40:55.748Z,100646.95
2023-05-21T00:43:26.534Z,100647.45
2023-05-21T00:45:56.652Z,100643.23
2023-05-21T00:48:24.922Z,100650.09
2023-05-21T00:50:53.154Z,100644.79
2023-05-21T00:53:21.102Z,100646.04
2023-05-21T00:55:49.668Z,100643.95
2023-05-21T00:58:18.272Z,100643.08
2023-05-21T01:00:46.622Z,100648.44
2023-05-21T01:03:14.925Z,100644.02
2023-05-21T01:05:45.266Z,100644.55
2023-05-21T01:08:13.410Z,100643.27
2023-05-21T01:10:41.327Z,100644.37
2023-05-21T01:13:09.593Z,100642.46
2023-05-21T01:15:39.022Z,100641.90
2023-05-21T01:18:07.843Z,100638.58
2023-05-21T01:20:36.277Z,100635.48
2023-05-21T01:23:04.742Z,100631.33
2023-05-21T01:25:33.256Z,100631.38
2023-05-21T01:28:01.312Z,100632.59
2023-05-21T01:30:29.471Z,100629.69
2023-05-21T01:33:03.787Z,100631.84
2023-05-21T01:35:51.360Z,100630.80
2023-05-21T01:38:31.405Z,100625.70
2023-05-21T01:41:05.106Z,100626.19
2023-05-21T01:43:34.810Z,100630.27
2023-05-21T01:46:05.667Z,100633.95
2023-05-21T01:48:35.041Z,100629.38
2023-05-21T01:51:04.539Z,100626.20
2023-05-21T01:53:32.724Z,100627.21
2023-05-21T01:56:00.792Z,100624.26
2023-05-21T01:58:28.899Z,100626.52
2023-05-21T02:00:57.179Z,100622.42
2023-05-21T02:03:27.121Z,100620.88
2023-05-21T02:05:55.824Z,100618.58
2023-05-21T02:08:25.669Z,100617.09
2023-05-21T02:10:53.957Z,100620.55
2023-05-21T02:13:25.179Z,100615.54
2023-05-21T02:15:54.805Z,100619.44
2023-05-21T02:18:23.409Z,100621.90
2023-05-21T02:20:51.408Z,100620.68
2023-05-21T02:23:19.231Z,100617.09
2023-05-21T02:25:47.136Z,100619.10
2023-05-21T02:28:15.888Z,100617.45
2023-05-21T02:30:43.722Z,100615.23
2023-05-21T02:33:14.432Z,100614.80
2023-05-21T02:35:43.922Z,100617.75
2023-05-21T02:38:13.685Z,100615.42
2023-05-21T02:40:41.760Z,100608.54
2023-05-21T02:43:09.672Z,100607.20
2023-05-21T02:45:37.925Z,100609.39
2023-05-21T02:48:06.395Z,100606.62
2023-05-21T02:50:37.025Z,100598.12
2023-05-21T02:53:04.868Z,100603.44
2023-05-21T02:55:33.708Z,100602.48
2023-05-21T02:58:02.443Z,100607.89
2023-05-21T03:00:30.898Z,100600.59
2023-05-21T03:02:59.070Z,100603.38
2023-05-21T03:05:27.708Z,100602.48
2023-05-21T03:07:56.399Z,100603.46
2023-05-21T03:10:24.277Z,100603.26
2023-05-21T03:12:53.579Z,100602.31
2023-05-21T03:15:24.303Z,100600.16
2023-05-21T03:17:54.351Z,100602.18
2023-05-21T03:20:22.424Z,100610.79
2023-05-21T03:22:50.310Z,100606.92
2023-05-21T03:25:18.192Z,100607.58
2023-05-21T03:27:46.118Z,100602.45
2023-05-21T03:30:26.493Z,100605.13
2023-05-21T03:33:11.286Z,100604.88
2023-05-21T03:35:39.537Z,100606.11
2023-05-21T03:38:07.681Z,100607.04
2023-05-21T03:40:37.348Z,100606.27
2023-05-21T03:43:05.156Z,100607.70
2023-05-21T03:45:33.019Z,100600.30
2023-05-21T03:48:19.821Z,100598.29
2023-05-21T03:50:47.743Z,100602.59
2023-05-21T03:53:17.820Z,100603.64
2023-05-21T03:55:46.301Z,100604.75
2023-05-21T03:58:14.185Z,100605.19
2023-05-21T04:00:42.372Z,100608.38
2023-05-21T04:03:11.769Z,100604.10
2023-05-21T04:05:39.751Z,100604.47
2023-05-21T04:08:07.832Z,100609.52
2023-05-21T04:10:36.222Z,100614.62
2023-05-21T04:13:04.133Z,100616.31
2023-05-21T04:15:32.477Z,100614.54
2023-05-21T04:18:00.626Z,100613.04
2023-05-21T04:20:28.516Z,100612.44
2023-05-21T04:22:56.827Z,100619.27
2023-05-21T04:25:25.526Z,100617.72
2023-05-21T04:27:54.830Z,100616.35
2023-05-21T04:30:24.103Z,100613.77
2023-05-21T04:32:52.835Z,100611.78
2023-05-21T04:35:21.406Z,100613.33
2023-05-21T04:37:49.251Z,100614.77
2023-05-21T04:40:18.561Z,100615.35
2023-05-21T04:42:50.815Z,100620.41
2023-05-21T04:45:19.788Z,100619.80
2023-05-21T04:47:48.650Z,100618.88
2023-05-21T04:50:18.815Z,100621.19
2023-05-21T04:52:46.583Z,100618.06
2023-05-21T04:55:14.453Z,100617.14
2023-05-21T04:57:43.823Z,100616.40
2023-05-21T05:00:15.076Z,100619.00
2023-05-21T05:02:44.205Z,100612.82
2023-05-21T05:05:12.619Z,100610.67
2023-05-21T05:07:40.860Z,100613.14
2023-05-21T05:10:09.330Z,100611.84
2023-05-21T05:12:38.450Z,100604.64
2023-05-21T05:15:06.853Z,100609.39
2023-05-21T05:17:35.693Z,100606.87
2023-05-21T05:20:04.022Z,100605.02
2023-05-21T05:22:33.074Z,100605.27
2023-05-21T05:25:00.905Z,100605.45
2023-05-21T05:27:28.842Z,100602.96
2023-05-21T05:29:56.880Z,100599.48
2023-05-21T05:32:25.349Z,100599.35
2023-05-21T05:34:53.341Z,100603.05
2023-05-21T05:37:21.278Z,100602.58
2023-05-21T05:39:49.124Z,100600.32
2023-05-21T05:42:17.990Z,100603.28
2023-05-21T05:44:46.951Z,100599.98
2023-05-21T05:47:14.933Z,100596.42
2023-05-21T05:49:45.510Z,100595.90
2023-05-21T05:52:13.409Z,100595.91
2023-05-21T05:54:41.208Z,100597.80
2023-05-21T05:57:10.314Z,100595.00
2023-05-21T05:59:39.459Z,100594.98
2023-05-21T06:02:07.469Z,100598.36
2023-05-21T06:04:35.611Z,100598.33
2023-05-21T06:07:03.870Z,100596.55
2023-05-21T06:09:31.691Z,100594.20
2023-05-21T06:11:59.695Z,100592.74
2023-05-21T06:14:27.516Z,100587.91
2023-05-21T06:16:55.437Z,100584.86
2023-05-21T06:19:23.778Z,100583.18
2023-05-21T06:21:51.703Z,100580.73
2023-05-21T06:24:19.544Z,100579.63
2023-05-21T06:26:47.384Z,100581.16
2023-05-21T06:29:17.083Z,100581.44
2023-05-21T06:31:47.238Z,100583.36
2023-05-21T06:34:16.238Z,100581.70
2023-05-21T06:36:45.874Z,100580.97
2023-05-21T06:39:13.776Z,100582.71
2023-05-21T06:41:41.673Z,100583.12
2023-05-21T06:44:25.240Z,100578.44
2023-05-21T06:47:04.156Z,100576.70
2023-05-21T06:49:33.210Z,100577.34
2023-05-21T06:52:01.687Z,100575.09
2023-05-21T06:54:29.499Z,100576.80
2023-05-21T06:56:57.473Z,100577.56
2023-05-21T06:59:25.737Z,100577.83
2023-05-21T07:01:54.751Z,100579.15
2023-05-21T07:04:22.646Z,100580.05
2023-05-21T07:06:52.516Z,100579.14
2023-05-21T07:09:20.783Z,100572.55
2023-05-21T07:11:49.260Z,100570.91
2023-05-21T07:14:17.851Z,100571.33
2023-05-21T07:16:45.872Z,100567.02
2023-05-21T07:19:15.432Z,100567.17
2023-05-21T07:21:44.052Z,100566.83
2023-05-21T07:24:12.169Z,100562.61
2023-05-21T07:26:41.310Z,100561.47
2023-05-21T07:29:09.444Z,100559.73
2023-05-21T07:31:38.144Z,100562.15
2023-05-21T07:34:06.730Z,100565.16
2023-05-21T07:36:34.840Z,100564.10
2023-05-21T07:39:04.989Z,100562.14
2023-05-21T07:41:33.063Z,100563.94
2023-05-21T07:44:01.763Z,100563.50
2023-05-21T07:46:29.749Z,100562.52
2023-05-21T07:48:58.297Z,100567.29
2023-05-21T07:51:26.902Z,100566.23
2023-05-21T07:53:55.503Z,100567.16
2023-05-21T07:56:29.576Z,100564.70
2023-05-21T07:58:58.218Z,100562.52
2023-05-21T13:02:43.045Z,100443.16
2023-05-21T13:05:20.109Z,100438.48
2023-05-21T13:07:48.430Z,100435.23
2023-05-21T13:10:17.272Z,100440.21
2023-05-21T13:12:45.777Z,100442.70
2023-05-21T13:15:14.507Z,100436.11
2023-05-21T13:17:42.511Z,100438.44
2023-05-21T13:20:12.544Z,100437.26
2023-05-21T13:22:48.336Z,100434.52
2023-05-21T13:25:22.672Z,100430.45
2023-05-21T13:27:51.911Z,100429.20
2023-05-21T13:30:20.931Z,100429.11
2023-05-21T13:32:48.943Z,100427.24
2023-05-21T13:35:17.624Z,100422.27
2023-05-21T13:37:46.056Z,100417.93
2023-05-21T13:40:15.562Z,100417.84
2023-05-21T13:42:45.463Z,100418.36
2023-05-21T13:45:15.502Z,100419.80
2023-05-21T13:47:44.321Z,100414.30
2023-05-21T13:50:12.810Z,100420.02
2023-05-21T13:52:41.077Z,100421.70
2023-05-21T13:55:10.047Z,100422.89
2023-05-21T13:57:37.969Z,100424.05
2023-05-21T14:00:09.180Z,100423.97
2023-05-21T14:02:38.141Z,100425.54
2023-05-21T14:05:06.532Z,100423.39
2023-05-21T14:07:34.629Z,100420.83
2023-05-21T14:10:03.162Z,100424.02
2023-05-21T14:12:31.231Z,100424.77
2023-05-21T14:14:59.131Z,100427.16
2023-05-21T14:17:27.001Z,100422.87
2023-05-21T14:19:55.881Z,100421.47
2023-05-21T14:22:23.954Z,100419.19
2023-05-21T14:24:52.718Z,100413.79
2023-05-21T14:27:20.765Z,100416.30
2023-05-21T14:29:48.615Z,100414.75
2023-05-21T14:32:18.430Z,100411.83
2023-05-21T14:34:46.407Z,100412.17
2023-05-21T14:37:14.227Z,100411.00
2023-05-21T14:39:42.046Z,100410.05
2023-05-21T14:42:10.033Z,100410.27
2023-05-21T14:44:37.821Z,100411.63
2023-05-21T14:47:05.771Z,100413.09
2023-05-21T14:49:33.715Z,100414.73
2023-05-21T14:52:02.223Z,100412.42
2023-05-21T14:54:30.072Z,100411.02
2023-05-21T14:56:57.885Z,100406.21
2023-05-21T14:59:25.697Z,100408.53
2023-05-21T15:01:53.612Z,100404.77
2023-05-21T15:04:22.289Z,100402.86
2023-05-21T15:06:50.541Z,100401.55
2023-05-21T15:09:18.511Z,100399.34
2023-05-21T15:11:46.892Z,100400.76
2023-05-21T15:14:15.198Z,100396.35
2023-05-21T15:16:43.178Z,100397.83
2023-05-21T15:19:13.438Z,100392.58
2023-05-21T15:21:42.465Z,100390.43
2023-05-21T15:24:11.568Z,100389.17
2023-05-21T15:26:39.633Z,100386.14
2023-05-21T15:29:08.656Z,100378.12
2023-05-21T15:31:36.930Z,100373.14
2023-05-21T15:34:05.211Z,100368.02
2023-05-21T15:36:33.287Z,100365.85
2023-05-21T15:39:03.514Z,100365.27
2023-05-21T15:41:36.808Z,100364.31
2023-05-21T15:44:05.497Z,100366.27
2023-05-21T15:46:33.407Z,100368.67
2023-05-21T15:49:01.657Z,100366.05
2023-05-21T15:51:29.546Z,100361.09
2023-05-21T15:53:57.351Z,100357.80
2023-05-21T15:56:25.172Z,100362.33
2023-05-21T15:58:53.033Z,100365.16
2023-05-21T16:01:20.907Z,100362.16
2023-05-21T16:03:48.864Z,100360.52
2023-05-21T16:06:16.901Z,100355.03
2023-05-21T16:08:44.687Z,100357.65
2023-05-21T16:11:12.807Z,100357.17
2023-05-21T16:13:41.200Z,100353.02
2023-05-21T16:16:09.125Z,100353.41
2023-05-21T16:18:37.773Z,100357.11
2023-05-21T16:21:06.194Z,100358.66
2023-05-21T16:23:34.371Z,100363.55
2023-05-21T16:26:02.183Z,100361.55
2023-05-21T16:28:30.354Z,100361.70
2023-05-21T16:30:58.561Z,100356.71
2023-05-21T16:33:26.411Z,100353.17
2023-05-21T16:35:54.546Z,100354.42
2023-05-21T16:38:22.490Z,100362.57
2023-05-21T16:40:50.784Z,100364.96
2023-05-21T16:43:18.797Z,100368.48
2023-05-21T16:45:46.988Z,100370.54
2023-05-21T16:48:16.354Z,100369.02
2023-05-21T16:50:44.676Z,100367.23
2023-05-21T16:53:13.766Z,100367.46
2023-05-21T16:55:43.327Z,100368.03
2023-05-21T16:58:13.495Z,100366.48
2023-05-21T17:00:41.288Z,100371.09
2023-05-21T17:03:09.237Z,100371.73
2023-05-21T17:05:37.766Z,100373.38
2023-05-21T17:08:05.886Z,100370.33
2023-05-21T17:10:34.108Z,100368.38
2023-05-21T17:13:17.499Z,100371.88
2023-05-21T17:15:49.490Z,100374.83
2023-05-21T17:18:17.485Z,100376.88
2023-05-21T17:20:45.363Z,100375.90
2023-05-21T17:23:13.357Z,100380.88
2023-05-21T17:25:41.771Z,100381.86
2023-05-21T17:28:09.802Z,100379.33
2023-05-21T17:30:37.571Z,100382.56
2023-05-21T17:33:06.538Z,100382.59
2023-05-21T17:35:34.874Z,100383.39
2023-05-21T17:38:02.836Z,100379.83
2023-05-21T17:40:31.051Z,100384.05
2023-05-21T17:42:58.924Z,100382.98
2023-05-21T17:45:26.897Z,100385.47
2023-05-21T17:47:56.139Z,100382.76
2023-05-21T17:50:25.934Z,100383.55
2023-05-21T17:52:53.852Z,100387.49
2023-05-21T17:55:21.766Z,100389.33
2023-05-21T17:57:49.709Z,100391.27
2023-05-21T18:00:18.240Z,100388.23
2023-05-21T18:02:46.755Z,100385.46
2023-05-21T18:05:14.592Z,100386.16
2023-05-21T18:07:42.372Z,100389.72
2023-05-21T18:10:10.732Z,100391.21
2023-05-21T18:12:39.329Z,100395.59
2023-05-21T18:15:07.890Z,100395.99
2023-05-21T18:17:35.784Z,100398.00
2023-05-21T18:20:04.540Z,100401.59
2023-05-21T18:22:32.667Z,100396.61
2023-05-21T18:25:01.065Z,100401.61
2023-05-21T18:27:29.408Z,100398.66
2023-05-21T18:29:57.798Z,100396.95
2023-05-21T18:32:26.174Z,100399.07
2023-05-21T18:34:54.520Z,100402.21
2023-05-21T18:37:22.457Z,100402.20
2023-05-21T18:39:50.461Z,100405.83
2023-05-21T18:42:19.534Z,100408.83
2023-05-21T18:44:51.019Z,100402.41
2023-05-21T18:47:18.872Z,100405.26
2023-05-21T18:49:47.638Z,100405.60
2023-05-21T18:52:15.492Z,100399.20
2023-05-21T18:54:43.417Z,100402.70
2023-05-21T18:57:12.034Z,100403.98
2023-05-21T18:59:40.837Z,100398.67
2023-05-21T19:02:09.093Z,100402.95
2023-05-21T19:04:38.045Z,100397.10
2023-05-21T19:07:06.045Z,100398.15
2023-05-21T19:09:33.909Z,100398.32
2023-05-21T19:12:04.917Z,100398.45
2023-05-21T19:14:33.360Z,100394.20
2023-05-21T19:17:01.170Z,100397.55
2023-05-21T19:19:29.152Z,100401.00
2023-05-21T19:21:57.386Z,100400.52
2023-05-21T19:24:25.390Z,100406.27
2023-05-21T19:26:54.009Z,100408.75
2023-05-21T19:29:21.856Z,100411.59
2023-05-21T19:31:49.716Z,100411.27
2023-05-21T19:34:18.902Z,100415.60
2023-05-21T19:36:53.341Z,100416.23
2023-05-21T19:39:23.126Z,100414.98
2023-05-21T19:41:52.852Z,100410.23
2023-05-21T19:44:20.857Z,100410.45
2023-05-21T19:46:49.965Z,100410.89
2023-05-21T19:49:19.932Z,100408.73
2023-05-21T19:51:49.583Z,100404.16
2023-05-21T19:54:18.627Z,100404.73
2023-05-21T19:56:47.479Z,100404.30
2023-05-21T19:59:15.552Z,100399.05
2023-05-21T20:01:45.471Z,100397.59
2023-05-21T20:04:13.868Z,100396.75
2023-05-21T20:06:42.337Z,100394.88
2023-05-21T20:09:13.353Z,100395.21
2023-05-21T20:11:42.288Z,100392.89
2023-05-21T20:14:10.372Z,100391.42
2023-05-21T20:16:38.246Z,100389.59
2023-05-21T20:19:06.247Z,100385.86
2023-05-21T20:21:34.205Z,100385.42
2023-05-21T20:24:03.983Z,100385.57
2023-05-21T20:26:34.798Z,100383.14
2023-05-21T20:29:02.636Z,100382.13
2023-05-21T20:31:30.610Z,100383.96
2023-05-21T20:33:58.793Z,100383.17
2023-05-21T20:36:27.207Z,100383.55
2023-05-21T20:38:55.007Z,100382.64
2023-05-21T20:41:25.279Z,100381.26
2023-05-21T20:43:54.625Z,100380.34
2023-05-21T20:46:22.505Z,100380.16
2023-05-21T20:48:50.397Z,100376.93
2023-05-21T20:51:18.149Z,100378.88
2023-05-21T20:53:47.102Z,100379.99
2023-05-21T20:56:16.965Z,100382.16
2023-05-21T20:58:48.399Z,100385.53
2023-05-21T21:01:17.762Z,100382.59
2023-05-21T21:03:45.878Z,100384.23
2023-05-21T21:06:19.147Z,100383.31
2023-05-21T21:08:50.055Z,100382.20
2023-05-21T21:11:18.207Z,100384.88
2023-05-21T21:13:46.094Z,100386.58
2023-05-21T21:16:14.130Z,100391.17
2023-05-21T21:18:42.264Z,100385.67
2023-05-21T21:21:10.054Z,100386.73
2023-05-21T21:23:37.882Z,100386.80
2023-05-21T21:26:05.870Z,100388.91
2023-05-21T21:28:33.783Z,100390.55
2023-05-21T21:31:01.893Z,100387.22
2023-05-21T21:33:29.812Z,100389.23
2023-05-21T21:35:57.664Z,100392.11
2023-05-21T21:38:25.614Z,100400.04
2023-05-21T21:40:54.981Z,100403.01
2023-05-21T21:43:23.014Z,100402.48
2023-05-21T21:45:51.470Z,100402.13
2023-05-21T21:48:19.339Z,100398.83
2023-05-21T21:50:47.331Z,100401.96
2023-05-21T21:53:15.441Z,100404.05
2023-05-21T21:55:43.232Z,100402.97
2023-05-21T21:58:11.239Z,100408.52
2023-05-21T22:00:39.474Z,100409.55
2023-05-21T22:03:07.569Z,100406.07
2023-05-21T22:05:35.708Z,100410.35
2023-05-21T22:08:03.980Z,100406.11
2023-05-21T22:10:33.641Z,100403.92
2023-05-21T22:13:03.011Z,100405.47
2023-05-21T22:15:32.270Z,100405.48
2023-05-21T22:18:03.658Z,100402.07
2023-05-21T22:20:33.183Z,100400.00
2023-05-21T22:23:01.293Z,100397.02
2023-05-21T22:25:29.142Z,100398.13
2023-05-21T22:27:57.020Z,100392.39
2023-05-21T22:30:25.398Z,100397.43
2023-05-21T22:32:53.292Z,100399.94
2023-05-21T22:35:21.272Z,100399.24
2023-05-21T22:37:49.087Z,100399.73
2023-05-21T22:40:16.977Z,100402.02
2023-05-21T22:42:45.920Z,100401.13
2023-05-21T22:45:13.723Z,100395.80
2023-05-21T22:47:41.589Z,100402.30
2023-05-21T22:50:10.438Z,100402.59
2023-05-21T22:52:38.432Z,100402.80
2023-05-21T22:55:06.508Z,100402.60
2023-05-21T22:57:34.674Z,100399.73
2023-05-21T23:00:04.640Z,100399.67
2023-05-21T23:02:32.833Z,100402.73
2023-05-21T23:05:01.352Z,100402.46
2023-05-21T23:07:29.346Z,100398.42
2023-05-21T23:09:57.362Z,100400.45
2023-05-21T23:12:25.307Z,100397.52
2023-05-21T23:14:53.128Z,100396.96
2023-05-21T23:17:21.209Z,100395.72
2023-05-21T23:19:52.452Z,100399.16
2023-05-21T23:22:22.217Z,100391.96
2023-05-21T23:24:51.108Z,100393.27
2023-05-21T23:27:19.046Z,100397.86
2023-05-21T23:29:46.886Z,100393.64
2023-05-21T23:32:14.705Z,100389.23
2023-05-21T23:34:42.915Z,100391.86
2023-05-21T23:37:11.142Z,100389.35
2023-05-21T23:39:38.969Z,100390.89
2023-05-21T23:42:07.015Z,100392.94
2023-05-21T23:44:35.552Z,100396.48
2023-05-21T23:47:03.565Z,100391.35
2023-05-21T23:49:31.355Z,100391.92
2023-05-21T23:51:59.220Z,100389.64
2023-05-21T23:54:27.209Z,100391.55
2023-05-21T23:56:54.969Z,100391.96
2023-05-21T23:59:22.835Z,100392.46
